sensor_id;sensor_type;location;lat;lon;timestamp;temperature;humidity
21104;DHT22;10710;53.398;-1.514;2024-01-25T00:00:33;6.80;99.90
21104;DHT22;10710;53.398;-1.514;2024-01-25T00:03:18;6.60;99.90
21104;DHT22;10710;53.398;-1.514;2024-01-25T00:06:03;6.50;99.90
21104;DHT22;10710;53.398;-1.514;2024-01-25T00:08:48;6.80;99.90
21104;DHT22;10710;53.398;-1.514;2024-01-25T00:11:32;6.60;99.90
21104;DHT22;10710;53.398;-1.514;2024-01-25T00:14:18;6.70;99.90
21104;DHT22;10710;53.398;-1.514;2024-01-25T00:17:02;6.80;99.90
21104;DHT22;10710;53.398;-1.514;2024-01-25T00:19:46;6.90;99.90
21104;DHT22;10710;53.398;-1.514;2024-01-25T00:22:31;6.90;99.90
21104;DHT22;10710;53.398;-1.514;2024-01-25T00:25:15;6.60;99.90
21104;DHT22;10710;53.398;-1.514;2024-01-25T00:28:00;6.40;99.90
21104;DHT22;10710;53.398;-1.514;2024-01-25T00:30:44;6.60;99.90
21104;DHT22;10710;53.398;-1.514;2024-01-25T00:33:29;6.70;99.90
21104;DHT22;10710;53.398;-1.514;2024-01-25T00:36:14;6.60;99.90
21104;DHT22;10710;53.398;-1.514;2024-01-25T00:38:59;6.30;99.90
21104;DHT22;10710;53.398;-1.514;2024-01-25T00:41:44;6.20;99.90
21104;DHT22;10710;53.398;-1.514;2024-01-25T00:44:30;6.00;99.90
21104;DHT22;10710;53.398;-1.514;2024-01-25T00:47:15;5.90;99.90
21104;DHT22;10710;53.398;-1.514;2024-01-25T00:49:59;5.80;99.90
21104;DHT22;10710;53.398;-1.514;2024-01-25T00:52:44;5.90;99.90
21104;DHT22;10710;53.398;-1.514;2024-01-25T00:55:29;6.20;99.90
21104;DHT22;10710;53.398;-1.514;2024-01-25T00:58:13;6.50;99.90
21104;DHT22;10710;53.398;-1.514;2024-01-25T01:00:58;6.60;99.90
21104;DHT22;10710;53.398;-1.514;2024-01-25T01:03:43;6.60;99.90
21104;DHT22;10710;53.398;-1.514;2024-01-25T01:06:27;6.70;99.90
21104;DHT22;10710;53.398;-1.514;2024-01-25T01:09:12;6.50;99.90
21104;DHT22;10710;53.398;-1.514;2024-01-25T01:11:57;6.20;99.90
21104;DHT22;10710;53.398;-1.514;2024-01-25T01:14:41;5.90;99.90
21104;DHT22;10710;53.398;-1.514;2024-01-25T01:17:25;5.90;99.90
21104;DHT22;10710;53.398;-1.514;2024-01-25T01:20:10;6.10;99.90
21104;DHT22;10710;53.398;-1.514;2024-01-25T01:22:54;6.50;99.90
21104;DHT22;10710;53.398;-1.514;2024-01-25T01:25:38;6.40;99.90
21104;DHT22;10710;53.398;-1.514;2024-01-25T01:28:22;6.30;99.90
21104;DHT22;10710;53.398;-1.514;2024-01-25T01:31:07;6.30;99.90
21104;DHT22;10710;53.398;-1.514;2024-01-25T01:33:51;6.30;99.90
21104;DHT22;10710;53.398;-1.514;2024-01-25T01:36:36;6.30;99.90
21104;DHT22;10710;53.398;-1.514;2024-01-25T01:39:20;6.20;99.90
21104;DHT22;10710;53.398;-1.514;2024-01-25T01:42:04;6.20;99.90
21104;DHT22;10710;53.398;-1.514;2024-01-25T01:44:50;6.20;99.90
21104;DHT22;10710;53.398;-1.514;2024-01-25T01:47:35;6.40;99.90
21104;DHT22;10710;53.398;-1.514;2024-01-25T01:50:19;6.80;99.90
21104;DHT22;10710;53.398;-1.514;2024-01-25T01:53:04;6.80;99.90
21104;DHT22;10710;53.398;-1.514;2024-01-25T01:55:49;6.80;99.90
21104;DHT22;10710;53.398;-1.514;2024-01-25T01:58:34;6.60;99.90
21104;DHT22;10710;53.398;-1.514;2024-01-25T02:01:19;6.90;99.90
21104;DHT22;10710;53.398;-1.514;2024-01-25T02:04:05;6.90;99.90
21104;DHT22;10710;53.398;-1.514;2024-01-25T02:06:49;6.80;99.90
21104;DHT22;10710;53.398;-1.514;2024-01-25T02:09:34;6.70;99.90
21104;DHT22;10710;53.398;-1.514;2024-01-25T02:12:19;6.70;99.90
21104;DHT22;10710;53.398;-1.514;2024-01-25T02:15:04;7.00;99.90
21104;DHT22;10710;53.398;-1.514;2024-01-25T02:17:49;7.30;99.90
21104;DHT22;10710;53.398;-1.514;2024-01-25T02:20:33;7.20;99.90
21104;DHT22;10710;53.398;-1.514;2024-01-25T02:23:17;7.10;99.90
21104;DHT22;10710;53.398;-1.514;2024-01-25T02:26:01;7.20;99.90
21104;DHT22;10710;53.398;-1.514;2024-01-25T02:28:46;7.30;99.90
21104;DHT22;10710;53.398;-1.514;2024-01-25T02:31:30;7.30;99.90
21104;DHT22;10710;53.398;-1.514;2024-01-25T02:34:14;7.00;99.90
21104;DHT22;10710;53.398;-1.514;2024-01-25T02:36:59;6.80;99.90
21104;DHT22;10710;53.398;-1.514;2024-01-25T02:39:43;6.80;99.90
21104;DHT22;10710;53.398;-1.514;2024-01-25T02:42:27;7.10;99.90
21104;DHT22;10710;53.398;-1.514;2024-01-25T02:45:12;7.20;99.90
21104;DHT22;10710;53.398;-1.514;2024-01-25T02:47:56;7.30;99.90
21104;DHT22;10710;53.398;-1.514;2024-01-25T02:50:40;7.30;99.90
21104;DHT22;10710;53.398;-1.514;2024-01-25T02:53:25;7.30;99.90
21104;DHT22;10710;53.398;-1.514;2024-01-25T02:56:09;7.20;99.90
21104;DHT22;10710;53.398;-1.514;2024-01-25T02:58:54;7.30;99.90
21104;DHT22;10710;53.398;-1.514;2024-01-25T03:01:40;7.20;99.90
21104;DHT22;10710;53.398;-1.514;2024-01-25T03:04:25;7.20;99.90
21104;DHT22;10710;53.398;-1.514;2024-01-25T03:07:10;7.20;99.90
21104;DHT22;10710;53.398;-1.514;2024-01-25T03:09:54;7.10;99.90
21104;DHT22;10710;53.398;-1.514;2024-01-25T03:12:38;7.10;99.90
21104;DHT22;10710;53.398;-1.514;2024-01-25T03:15:22;7.00;99.90
21104;DHT22;10710;53.398;-1.514;2024-01-25T03:18:07;7.00;99.90
21104;DHT22;10710;53.398;-1.514;2024-01-25T03:20:51;7.10;99.90
21104;DHT22;10710;53.398;-1.514;2024-01-25T03:23:36;7.00;99.90
21104;DHT22;10710;53.398;-1.514;2024-01-25T03:26:20;6.70;99.90
21104;DHT22;10710;53.398;-1.514;2024-01-25T03:29:04;6.50;99.90
21104;DHT22;10710;53.398;-1.514;2024-01-25T03:31:49;6.70;99.90
21104;DHT22;10710;53.398;-1.514;2024-01-25T03:34:34;6.60;99.90
21104;DHT22;10710;53.398;-1.514;2024-01-25T03:37:18;6.50;99.90
21104;DHT22;10710;53.398;-1.514;2024-01-25T03:40:04;6.50;99.90
21104;DHT22;10710;53.398;-1.514;2024-01-25T03:42:49;6.50;99.90
21104;DHT22;10710;53.398;-1.514;2024-01-25T03:45:33;6.50;99.90
21104;DHT22;10710;53.398;-1.514;2024-01-25T03:48:18;6.70;99.90
21104;DHT22;10710;53.398;-1.514;2024-01-25T03:51:02;6.70;99.90
21104;DHT22;10710;53.398;-1.514;2024-01-25T03:53:47;6.90;99.90
21104;DHT22;10710;53.398;-1.514;2024-01-25T03:56:32;6.70;99.90
21104;DHT22;10710;53.398;-1.514;2024-01-25T03:59:16;6.60;99.90
21104;DHT22;10710;53.398;-1.514;2024-01-25T04:02:00;6.80;99.90
21104;DHT22;10710;53.398;-1.514;2024-01-25T04:04:44;7.00;99.90
21104;DHT22;10710;53.398;-1.514;2024-01-25T04:07:28;7.00;99.90
21104;DHT22;10710;53.398;-1.514;2024-01-25T04:10:13;7.20;99.90
21104;DHT22;10710;53.398;-1.514;2024-01-25T04:12:57;7.20;99.90
21104;DHT22;10710;53.398;-1.514;2024-01-25T04:15:41;7.30;99.90
21104;DHT22;10710;53.398;-1.514;2024-01-25T04:18:26;7.30;99.90
21104;DHT22;10710;53.398;-1.514;2024-01-25T04:21:10;7.40;99.90
21104;DHT22;10710;53.398;-1.514;2024-01-25T04:23:54;7.40;99.90
21104;DHT22;10710;53.398;-1.514;2024-01-25T04:26:38;7.40;99.90
21104;DHT22;10710;53.398;-1.514;2024-01-25T04:29:23;7.10;99.90
21104;DHT22;10710;53.398;-1.514;2024-01-25T04:32:08;7.20;99.90
21104;DHT22;10710;53.398;-1.514;2024-01-25T04:34:52;7.40;99.90
21104;DHT22;10710;53.398;-1.514;2024-01-25T04:37:36;7.50;99.90
21104;DHT22;10710;53.398;-1.514;2024-01-25T04:40:21;7.40;99.90
21104;DHT22;10710;53.398;-1.514;2024-01-25T04:43:05;7.50;99.90
21104;DHT22;10710;53.398;-1.514;2024-01-25T04:45:50;7.50;99.90
21104;DHT22;10710;53.398;-1.514;2024-01-25T04:48:34;7.50;99.90
21104;DHT22;10710;53.398;-1.514;2024-01-25T04:51:19;7.30;99.90
21104;DHT22;10710;53.398;-1.514;2024-01-25T04:54:06;7.40;99.90
21104;DHT22;10710;53.398;-1.514;2024-01-25T04:56:55;7.50;99.90
21104;DHT22;10710;53.398;-1.514;2024-01-25T04:59:40;7.60;99.90
21104;DHT22;10710;53.398;-1.514;2024-01-25T05:02:24;7.60;99.90
21104;DHT22;10710;53.398;-1.514;2024-01-25T05:05:08;7.70;99.90
21104;DHT22;10710;53.398;-1.514;2024-01-25T05:07:53;7.70;99.90
21104;DHT22;10710;53.398;-1.514;2024-01-25T05:10:37;7.70;99.90
21104;DHT22;10710;53.398;-1.514;2024-01-25T05:13:21;7.80;99.90
21104;DHT22;10710;53.398;-1.514;2024-01-25T05:16:05;7.90;99.90
21104;DHT22;10710;53.398;-1.514;2024-01-25T05:18:49;7.90;99.90
21104;DHT22;10710;53.398;-1.514;2024-01-25T05:21:34;8.00;99.90
21104;DHT22;10710;53.398;-1.514;2024-01-25T05:24:18;8.00;99.90
21104;DHT22;10710;53.398;-1.514;2024-01-25T05:27:02;8.00;99.90
21104;DHT22;10710;53.398;-1.514;2024-01-25T05:29:46;8.00;99.90
21104;DHT22;10710;53.398;-1.514;2024-01-25T05:32:30;8.00;99.90
21104;DHT22;10710;53.398;-1.514;2024-01-25T05:35:15;8.00;99.90
21104;DHT22;10710;53.398;-1.514;2024-01-25T05:37:59;8.00;99.90
21104;DHT22;10710;53.398;-1.514;2024-01-25T05:40:44;8.00;99.90
21104;DHT22;10710;53.398;-1.514;2024-01-25T05:43:28;8.00;99.90
21104;DHT22;10710;53.398;-1.514;2024-01-25T05:46:12;8.00;99.90
21104;DHT22;10710;53.398;-1.514;2024-01-25T05:48:57;8.10;99.90
21104;DHT22;10710;53.398;-1.514;2024-01-25T05:51:41;8.00;99.90
21104;DHT22;10710;53.398;-1.514;2024-01-25T05:54:25;8.00;99.90
21104;DHT22;10710;53.398;-1.514;2024-01-25T05:57:10;8.00;99.90
21104;DHT22;10710;53.398;-1.514;2024-01-25T05:59:54;8.10;99.90
21104;DHT22;10710;53.398;-1.514;2024-01-25T06:02:39;8.10;99.90
21104;DHT22;10710;53.398;-1.514;2024-01-25T06:05:24;8.00;99.90
21104;DHT22;10710;53.398;-1.514;2024-01-25T06:08:08;8.10;99.90
21104;DHT22;10710;53.398;-1.514;2024-01-25T06:10:52;8.10;99.90
21104;DHT22;10710;53.398;-1.514;2024-01-25T06:13:36;8.10;99.90
21104;DHT22;10710;53.398;-1.514;2024-01-25T06:16:20;8.10;99.90
21104;DHT22;10710;53.398;-1.514;2024-01-25T06:19:05;8.10;99.90
21104;DHT22;10710;53.398;-1.514;2024-01-25T06:21:50;8.10;99.90
21104;DHT22;10710;53.398;-1.514;2024-01-25T06:24:34;8.10;99.90
21104;DHT22;10710;53.398;-1.514;2024-01-25T06:27:18;8.10;99.90
21104;DHT22;10710;53.398;-1.514;2024-01-25T06:30:02;8.10;99.90
21104;DHT22;10710;53.398;-1.514;2024-01-25T06:32:47;8.20;99.90
21104;DHT22;10710;53.398;-1.514;2024-01-25T06:35:31;8.10;99.90
21104;DHT22;10710;53.398;-1.514;2024-01-25T06:38:15;8.10;99.90
21104;DHT22;10710;53.398;-1.514;2024-01-25T06:40:59;8.10;99.90
21104;DHT22;10710;53.398;-1.514;2024-01-25T06:43:44;8.10;99.90
21104;DHT22;10710;53.398;-1.514;2024-01-25T06:46:28;8.20;99.90
21104;DHT22;10710;53.398;-1.514;2024-01-25T06:49:12;8.40;99.90
21104;DHT22;10710;53.398;-1.514;2024-01-25T06:51:57;8.30;99.90
21104;DHT22;10710;53.398;-1.514;2024-01-25T06:54:42;8.40;99.90
21104;DHT22;10710;53.398;-1.514;2024-01-25T06:57:26;8.50;99.90
21104;DHT22;10710;53.398;-1.514;2024-01-25T07:00:11;8.60;99.90
21104;DHT22;10710;53.398;-1.514;2024-01-25T07:02:56;8.60;99.90
21104;DHT22;10710;53.398;-1.514;2024-01-25T07:05:41;8.60;99.90
21104;DHT22;10710;53.398;-1.514;2024-01-25T07:08:25;8.70;99.90
21104;DHT22;10710;53.398;-1.514;2024-01-25T07:11:09;8.80;99.90
21104;DHT22;10710;53.398;-1.514;2024-01-25T07:13:54;8.70;99.90
21104;DHT22;10710;53.398;-1.514;2024-01-25T07:16:38;8.80;99.90
21104;DHT22;10710;53.398;-1.514;2024-01-25T07:19:25;8.80;99.90
21104;DHT22;10710;53.398;-1.514;2024-01-25T07:22:09;8.80;99.90
21104;DHT22;10710;53.398;-1.514;2024-01-25T07:24:55;8.90;99.90
21104;DHT22;10710;53.398;-1.514;2024-01-25T07:27:44;8.80;99.90
21104;DHT22;10710;53.398;-1.514;2024-01-25T07:30:29;8.70;99.90
21104;DHT22;10710;53.398;-1.514;2024-01-25T07:33:13;8.50;99.90
21104;DHT22;10710;53.398;-1.514;2024-01-25T07:35:57;8.80;99.90
21104;DHT22;10710;53.398;-1.514;2024-01-25T07:38:43;8.80;99.90
21104;DHT22;10710;53.398;-1.514;2024-01-25T07:41:27;8.90;99.90
21104;DHT22;10710;53.398;-1.514;2024-01-25T07:44:12;8.80;99.90
21104;DHT22;10710;53.398;-1.514;2024-01-25T07:46:57;8.90;99.90
21104;DHT22;10710;53.398;-1.514;2024-01-25T07:49:42;8.80;99.90
21104;DHT22;10710;53.398;-1.514;2024-01-25T07:52:26;8.80;99.90
21104;DHT22;10710;53.398;-1.514;2024-01-25T07:55:11;8.70;99.90
21104;DHT22;10710;53.398;-1.514;2024-01-25T07:57:56;8.80;99.90
21104;DHT22;10710;53.398;-1.514;2024-01-25T08:00:40;8.80;99.90
21104;DHT22;10710;53.398;-1.514;2024-01-25T08:03:24;8.80;99.90
21104;DHT22;10710;53.398;-1.514;2024-01-25T08:06:08;8.80;99.90
21104;DHT22;10710;53.398;-1.514;2024-01-25T08:08:52;8.80;99.90
21104;DHT22;10710;53.398;-1.514;2024-01-25T08:11:36;8.70;99.90
21104;DHT22;10710;53.398;-1.514;2024-01-25T08:14:20;8.70;99.90
21104;DHT22;10710;53.398;-1.514;2024-01-25T08:17:05;8.70;99.90
21104;DHT22;10710;53.398;-1.514;2024-01-25T08:19:50;8.80;99.90
21104;DHT22;10710;53.398;-1.514;2024-01-25T08:22:34;8.90;99.90
21104;DHT22;10710;53.398;-1.514;2024-01-25T08:25:18;8.90;99.90
21104;DHT22;10710;53.398;-1.514;2024-01-25T08:28:04;9.00;99.90
21104;DHT22;10710;53.398;-1.514;2024-01-25T08:30:49;9.00;99.90
21104;DHT22;10710;53.398;-1.514;2024-01-25T08:33:34;9.00;99.90
21104;DHT22;10710;53.398;-1.514;2024-01-25T08:36:18;9.10;99.90
21104;DHT22;10710;53.398;-1.514;2024-01-25T08:39:03;9.10;99.90
21104;DHT22;10710;53.398;-1.514;2024-01-25T08:41:49;9.00;99.90
21104;DHT22;10710;53.398;-1.514;2024-01-25T08:44:34;9.10;99.90
21104;DHT22;10710;53.398;-1.514;2024-01-25T08:47:18;9.10;99.90
21104;DHT22;10710;53.398;-1.514;2024-01-25T08:50:03;9.10;99.90
21104;DHT22;10710;53.398;-1.514;2024-01-25T08:52:49;9.00;99.90
21104;DHT22;10710;53.398;-1.514;2024-01-25T08:55:34;9.10;99.90
21104;DHT22;10710;53.398;-1.514;2024-01-25T08:58:18;9.20;99.90
21104;DHT22;10710;53.398;-1.514;2024-01-25T09:01:04;9.20;99.90
21104;DHT22;10710;53.398;-1.514;2024-01-25T09:03:48;9.30;99.90
21104;DHT22;10710;53.398;-1.514;2024-01-25T09:06:32;9.30;99.90
21104;DHT22;10710;53.398;-1.514;2024-01-25T09:09:16;9.40;99.90
21104;DHT22;10710;53.398;-1.514;2024-01-25T09:12:00;9.50;99.90
21104;DHT22;10710;53.398;-1.514;2024-01-25T09:14:45;9.50;99.90
21104;DHT22;10710;53.398;-1.514;2024-01-25T09:17:29;9.60;99.90
21104;DHT22;10710;53.398;-1.514;2024-01-25T09:20:13;9.70;99.90
21104;DHT22;10710;53.398;-1.514;2024-01-25T09:22:58;9.80;99.90
21104;DHT22;10710;53.398;-1.514;2024-01-25T09:25:44;10.00;99.90
21104;DHT22;10710;53.398;-1.514;2024-01-25T09:28:28;10.10;99.90
21104;DHT22;10710;53.398;-1.514;2024-01-25T09:31:12;10.20;99.90
21104;DHT22;10710;53.398;-1.514;2024-01-25T09:33:57;10.30;99.90
21104;DHT22;10710;53.398;-1.514;2024-01-25T09:36:41;10.30;99.90
21104;DHT22;10710;53.398;-1.514;2024-01-25T09:39:25;10.10;99.90
21104;DHT22;10710;53.398;-1.514;2024-01-25T09:42:10;9.80;99.90
21104;DHT22;10710;53.398;-1.514;2024-01-25T09:44:54;9.80;99.90
21104;DHT22;10710;53.398;-1.514;2024-01-25T09:47:39;9.80;99.90
21104;DHT22;10710;53.398;-1.514;2024-01-25T09:50:24;9.90;99.90
21104;DHT22;10710;53.398;-1.514;2024-01-25T09:53:12;9.80;99.90
21104;DHT22;10710;53.398;-1.514;2024-01-25T09:56:09;9.50;99.90
21104;DHT22;10710;53.398;-1.514;2024-01-25T09:58:54;9.50;99.90
21104;DHT22;10710;53.398;-1.514;2024-01-25T10:01:39;9.50;99.90
21104;DHT22;10710;53.398;-1.514;2024-01-25T10:04:23;9.40;99.90
21104;DHT22;10710;53.398;-1.514;2024-01-25T10:07:08;9.40;99.90
21104;DHT22;10710;53.398;-1.514;2024-01-25T10:09:52;9.50;99.90
21104;DHT22;10710;53.398;-1.514;2024-01-25T10:12:37;9.70;99.90
21104;DHT22;10710;53.398;-1.514;2024-01-25T10:15:23;9.80;99.90
21104;DHT22;10710;53.398;-1.514;2024-01-25T10:18:08;9.80;99.90
21104;DHT22;10710;53.398;-1.514;2024-01-25T10:20:57;10.00;99.90
21104;DHT22;10710;53.398;-1.514;2024-01-25T10:23:43;10.00;99.90
21104;DHT22;10710;53.398;-1.514;2024-01-25T10:26:27;10.10;99.90
21104;DHT22;10710;53.398;-1.514;2024-01-25T10:29:15;10.20;99.90
21104;DHT22;10710;53.398;-1.514;2024-01-25T10:31:59;10.40;99.90
21104;DHT22;10710;53.398;-1.514;2024-01-25T10:34:45;10.40;99.90
21104;DHT22;10710;53.398;-1.514;2024-01-25T10:37:30;10.40;99.90
21104;DHT22;10710;53.398;-1.514;2024-01-25T10:40:16;10.30;99.90
21104;DHT22;10710;53.398;-1.514;2024-01-25T10:43:01;10.20;99.90
21104;DHT22;10710;53.398;-1.514;2024-01-25T10:45:46;10.20;99.90
21104;DHT22;10710;53.398;-1.514;2024-01-25T10:48:31;10.30;99.90
21104;DHT22;10710;53.398;-1.514;2024-01-25T10:51:16;10.20;99.90
21104;DHT22;10710;53.398;-1.514;2024-01-25T10:54:03;10.20;99.90
21104;DHT22;10710;53.398;-1.514;2024-01-25T10:56:50;10.20;99.90
21104;DHT22;10710;53.398;-1.514;2024-01-25T10:59:36;10.10;99.90
21104;DHT22;10710;53.398;-1.514;2024-01-25T11:02:20;10.30;99.90
21104;DHT22;10710;53.398;-1.514;2024-01-25T11:05:31;10.50;99.90
21104;DHT22;10710;53.398;-1.514;2024-01-25T11:08:19;10.40;99.90
21104;DHT22;10710;53.398;-1.514;2024-01-25T11:11:05;10.40;99.90
21104;DHT22;10710;53.398;-1.514;2024-01-25T11:13:51;10.40;99.90
21104;DHT22;10710;53.398;-1.514;2024-01-25T11:16:36;10.40;99.90
21104;DHT22;10710;53.398;-1.514;2024-01-25T11:19:23;10.40;99.90
21104;DHT22;10710;53.398;-1.514;2024-01-25T11:22:07;10.40;99.90
21104;DHT22;10710;53.398;-1.514;2024-01-25T11:24:55;10.30;99.90
21104;DHT22;10710;53.398;-1.514;2024-01-25T11:27:39;10.40;99.90
21104;DHT22;10710;53.398;-1.514;2024-01-25T11:30:25;10.30;99.90
21104;DHT22;10710;53.398;-1.514;2024-01-25T11:33:10;10.30;99.90
21104;DHT22;10710;53.398;-1.514;2024-01-25T11:35:56;10.20;99.90
21104;DHT22;10710;53.398;-1.514;2024-01-25T11:38:40;10.40;99.90
21104;DHT22;10710;53.398;-1.514;2024-01-25T11:41:24;10.60;99.90
21104;DHT22;10710;53.398;-1.514;2024-01-25T11:44:13;10.90;99.90
21104;DHT22;10710;53.398;-1.514;2024-01-25T11:47:00;11.10;99.90
21104;DHT22;10710;53.398;-1.514;2024-01-25T11:49:45;11.30;99.90
21104;DHT22;10710;53.398;-1.514;2024-01-25T11:52:29;11.50;99.90
21104;DHT22;10710;53.398;-1.514;2024-01-25T11:55:16;11.70;99.90
21104;DHT22;10710;53.398;-1.514;2024-01-25T11:58:00;12.00;99.90
21104;DHT22;10710;53.398;-1.514;2024-01-25T12:00:45;12.30;99.90
21104;DHT22;10710;53.398;-1.514;2024-01-25T12:03:30;12.40;99.90
21104;DHT22;10710;53.398;-1.514;2024-01-25T12:06:14;12.40;99.90
21104;DHT22;10710;53.398;-1.514;2024-01-25T12:09:09;12.30;99.90
21104;DHT22;10710;53.398;-1.514;2024-01-25T12:11:53;12.30;99.90
21104;DHT22;10710;53.398;-1.514;2024-01-25T12:14:38;12.10;99.90
21104;DHT22;10710;53.398;-1.514;2024-01-25T12:17:30;12.00;99.90
21104;DHT22;10710;53.398;-1.514;2024-01-25T12:20:16;11.80;99.90
21104;DHT22;10710;53.398;-1.514;2024-01-25T12:23:01;12.00;99.90
21104;DHT22;10710;53.398;-1.514;2024-01-25T12:25:45;12.00;99.90
21104;DHT22;10710;53.398;-1.514;2024-01-25T12:28:30;12.00;99.90
21104;DHT22;10710;53.398;-1.514;2024-01-25T12:31:15;12.10;99.90
21104;DHT22;10710;53.398;-1.514;2024-01-25T12:34:00;12.30;99.90
21104;DHT22;10710;53.398;-1.514;2024-01-25T12:36:44;12.10;99.90
21104;DHT22;10710;53.398;-1.514;2024-01-25T12:39:29;12.10;99.90
21104;DHT22;10710;53.398;-1.514;2024-01-25T12:42:13;12.00;99.90
21104;DHT22;10710;53.398;-1.514;2024-01-25T12:44:57;12.00;99.90
21104;DHT22;10710;53.398;-1.514;2024-01-25T12:47:41;12.00;99.90
21104;DHT22;10710;53.398;-1.514;2024-01-25T12:50:25;12.00;99.90
21104;DHT22;10710;53.398;-1.514;2024-01-25T12:53:11;12.00;99.90
21104;DHT22;10710;53.398;-1.514;2024-01-25T12:55:55;12.20;99.90
21104;DHT22;10710;53.398;-1.514;2024-01-25T12:58:39;12.50;99.90
21104;DHT22;10710;53.398;-1.514;2024-01-25T13:01:24;12.30;99.90
21104;DHT22;10710;53.398;-1.514;2024-01-25T13:04:08;12.40;99.90
21104;DHT22;10710;53.398;-1.514;2024-01-25T13:06:54;12.40;99.90
21104;DHT22;10710;53.398;-1.514;2024-01-25T13:09:41;12.70;99.90
21104;DHT22;10710;53.398;-1.514;2024-01-25T13:12:25;12.40;99.90
21104;DHT22;10710;53.398;-1.514;2024-01-25T13:15:10;12.40;99.90
21104;DHT22;10710;53.398;-1.514;2024-01-25T13:17:54;12.50;99.90
21104;DHT22;10710;53.398;-1.514;2024-01-25T13:20:38;12.50;99.90
21104;DHT22;10710;53.398;-1.514;2024-01-25T13:23:22;12.60;99.90
21104;DHT22;10710;53.398;-1.514;2024-01-25T13:26:06;12.70;99.90
21104;DHT22;10710;53.398;-1.514;2024-01-25T13:28:50;12.70;99.90
21104;DHT22;10710;53.398;-1.514;2024-01-25T13:31:34;12.90;99.90
21104;DHT22;10710;53.398;-1.514;2024-01-25T13:34:19;13.00;99.90
21104;DHT22;10710;53.398;-1.514;2024-01-25T13:37:03;13.10;99.90
21104;DHT22;10710;53.398;-1.514;2024-01-25T13:39:48;13.10;99.90
21104;DHT22;10710;53.398;-1.514;2024-01-25T13:42:32;13.20;99.90
21104;DHT22;10710;53.398;-1.514;2024-01-25T13:45:16;13.30;99.90
21104;DHT22;10710;53.398;-1.514;2024-01-25T13:48:00;13.20;99.90
21104;DHT22;10710;53.398;-1.514;2024-01-25T13:50:44;13.20;99.90
21104;DHT22;10710;53.398;-1.514;2024-01-25T13:53:29;13.20;99.90
21104;DHT22;10710;53.398;-1.514;2024-01-25T13:56:13;13.20;99.90
21104;DHT22;10710;53.398;-1.514;2024-01-25T13:58:58;12.90;99.90
21104;DHT22;10710;53.398;-1.514;2024-01-25T14:01:42;12.90;99.90
21104;DHT22;10710;53.398;-1.514;2024-01-25T14:04:26;12.80;99.90
21104;DHT22;10710;53.398;-1.514;2024-01-25T14:07:10;12.80;99.90
21104;DHT22;10710;53.398;-1.514;2024-01-25T14:09:54;12.90;99.90
21104;DHT22;10710;53.398;-1.514;2024-01-25T14:12:39;13.00;99.90
21104;DHT22;10710;53.398;-1.514;2024-01-25T14:15:23;12.80;99.90
21104;DHT22;10710;53.398;-1.514;2024-01-25T14:18:07;12.90;99.90
21104;DHT22;10710;53.398;-1.514;2024-01-25T14:20:52;13.00;99.90
21104;DHT22;10710;53.398;-1.514;2024-01-25T14:23:36;12.80;99.90
21104;DHT22;10710;53.398;-1.514;2024-01-25T14:26:20;13.00;99.90
21104;DHT22;10710;53.398;-1.514;2024-01-25T14:29:04;13.20;99.90
21104;DHT22;10710;53.398;-1.514;2024-01-25T14:31:48;13.10;99.90
21104;DHT22;10710;53.398;-1.514;2024-01-25T14:34:33;13.00;99.90
21104;DHT22;10710;53.398;-1.514;2024-01-25T14:37:17;13.10;99.90
21104;DHT22;10710;53.398;-1.514;2024-01-25T14:40:02;13.00;99.90
21104;DHT22;10710;53.398;-1.514;2024-01-25T14:42:46;13.00;99.90
21104;DHT22;10710;53.398;-1.514;2024-01-25T14:45:30;13.20;99.90
21104;DHT22;10710;53.398;-1.514;2024-01-25T14:48:16;13.20;99.90
21104;DHT22;10710;53.398;-1.514;2024-01-25T14:51:02;13.10;99.90
21104;DHT22;10710;53.398;-1.514;2024-01-25T14:53:46;12.70;99.90
21104;DHT22;10710;53.398;-1.514;2024-01-25T14:56:30;12.90;99.90
21104;DHT22;10710;53.398;-1.514;2024-01-25T14:59:14;12.90;99.90
21104;DHT22;10710;53.398;-1.514;2024-01-25T15:01:59;13.00;99.90
21104;DHT22;10710;53.398;-1.514;2024-01-25T15:04:43;13.20;99.90
21104;DHT22;10710;53.398;-1.514;2024-01-25T15:07:28;13.20;99.90
21104;DHT22;10710;53.398;-1.514;2024-01-25T15:10:13;13.40;99.90
21104;DHT22;10710;53.398;-1.514;2024-01-25T15:12:57;13.40;99.90
21104;DHT22;10710;53.398;-1.514;2024-01-25T15:15:43;13.40;99.90
21104;DHT22;10710;53.398;-1.514;2024-01-25T15:18:28;13.30;99.90
21104;DHT22;10710;53.398;-1.514;2024-01-25T15:21:13;13.30;99.90
21104;DHT22;10710;53.398;-1.514;2024-01-25T15:23:57;13.20;99.90
21104;DHT22;10710;53.398;-1.514;2024-01-25T15:26:41;13.10;99.90
21104;DHT22;10710;53.398;-1.514;2024-01-25T15:29:27;13.00;99.90
21104;DHT22;10710;53.398;-1.514;2024-01-25T15:32:11;13.20;99.90
21104;DHT22;10710;53.398;-1.514;2024-01-25T15:34:55;13.10;99.90
21104;DHT22;10710;53.398;-1.514;2024-01-25T15:37:39;13.00;99.90
21104;DHT22;10710;53.398;-1.514;2024-01-25T15:40:25;13.00;99.90
21104;DHT22;10710;53.398;-1.514;2024-01-25T15:43:10;13.20;99.90
21104;DHT22;10710;53.398;-1.514;2024-01-25T15:45:54;13.20;99.90
21104;DHT22;10710;53.398;-1.514;2024-01-25T15:48:38;13.30;99.90
21104;DHT22;10710;53.398;-1.514;2024-01-25T15:51:23;13.10;99.90
21104;DHT22;10710;53.398;-1.514;2024-01-25T15:54:07;13.10;99.90
21104;DHT22;10710;53.398;-1.514;2024-01-25T15:56:52;13.10;99.90
21104;DHT22;10710;53.398;-1.514;2024-01-25T15:59:36;13.40;99.90
21104;DHT22;10710;53.398;-1.514;2024-01-25T16:02:20;13.30;99.90
21104;DHT22;10710;53.398;-1.514;2024-01-25T16:05:04;13.20;99.90
21104;DHT22;10710;53.398;-1.514;2024-01-25T16:07:49;13.10;99.90
21104;DHT22;10710;53.398;-1.514;2024-01-25T16:10:33;13.10;99.90
21104;DHT22;10710;53.398;-1.514;2024-01-25T16:13:17;13.10;99.90
21104;DHT22;10710;53.398;-1.514;2024-01-25T16:16:03;13.00;99.90
21104;DHT22;10710;53.398;-1.514;2024-01-25T16:18:47;13.00;99.90
21104;DHT22;10710;53.398;-1.514;2024-01-25T16:21:31;12.80;99.90
21104;DHT22;10710;53.398;-1.514;2024-01-25T16:24:16;12.90;99.90
21104;DHT22;10710;53.398;-1.514;2024-01-25T16:27:02;13.00;99.90
21104;DHT22;10710;53.398;-1.514;2024-01-25T16:29:47;12.80;99.90
21104;DHT22;10710;53.398;-1.514;2024-01-25T16:32:31;12.90;99.90
21104;DHT22;10710;53.398;-1.514;2024-01-25T16:35:16;13.10;99.90
21104;DHT22;10710;53.398;-1.514;2024-01-25T16:38:00;12.90;99.90
21104;DHT22;10710;53.398;-1.514;2024-01-25T16:40:44;12.90;99.90
21104;DHT22;10710;53.398;-1.514;2024-01-25T16:43:28;12.90;99.90
21104;DHT22;10710;53.398;-1.514;2024-01-25T16:46:12;13.00;99.90
21104;DHT22;10710;53.398;-1.514;2024-01-25T16:48:56;13.00;99.90
21104;DHT22;10710;53.398;-1.514;2024-01-25T16:51:42;13.10;99.90
21104;DHT22;10710;53.398;-1.514;2024-01-25T16:54:26;13.00;99.90
21104;DHT22;10710;53.398;-1.514;2024-01-25T16:57:11;13.10;99.90
21104;DHT22;10710;53.398;-1.514;2024-01-25T16:59:55;13.20;99.90
21104;DHT22;10710;53.398;-1.514;2024-01-25T17:02:39;13.20;99.90
21104;DHT22;10710;53.398;-1.514;2024-01-25T17:05:24;13.20;99.90
21104;DHT22;10710;53.398;-1.514;2024-01-25T17:08:08;13.00;99.90
21104;DHT22;10710;53.398;-1.514;2024-01-25T17:10:52;13.00;99.90
21104;DHT22;10710;53.398;-1.514;2024-01-25T17:13:36;13.10;99.90